createdAt,value
2019-02-12T07:47:39.844Z,40.49
2019-02-12T07:48:11.846Z,40.2
2019-02-12T07:48:45.751Z,39.81
2019-02-12T07:49:17.757Z,40.49
2019-02-12T07:49:49.738Z,40.2
2019-02-12T07:50:21.738Z,40.3
2019-02-12T07:50:53.712Z,40.39
2019-02-12T07:51:25.771Z,40.2
2019-02-12T07:51:57.737Z,40.11
2019-02-12T07:52:29.696Z,40.58
2019-02-12T07:53:01.705Z,40.2
2019-02-12T07:53:33.749Z,40.2
2019-02-12T07:54:05.722Z,40.39
2019-02-12T07:54:37.711Z,40.3
2019-02-12T07:55:09.737Z,40.39
2019-02-12T07:55:41.730Z,40.11
2019-02-12T07:56:13.707Z,40.11
2019-02-12T07:56:45.689Z,40.49
2019-02-12T07:57:17.667Z,40.11
2019-02-12T07:57:49.691Z,40.11
2019-02-12T07:58:21.693Z,40.11
2019-02-12T07:58:53.686Z,40.11
2019-02-12T07:59:25.702Z,40.11
2019-02-12T07:59:57.695Z,40.11
2019-02-12T08:00:29.698Z,40.11
2019-02-12T08:01:01.702Z,40.2
2019-02-12T08:01:33.690Z,40.11
2019-02-12T08:02:05.662Z,40.3
2019-02-12T08:02:37.662Z,40.2
2019-02-12T08:03:09.661Z,40.2
2019-02-12T08:03:41.656Z,40.3
2019-02-12T08:04:13.628Z,40.2
2019-02-12T08:04:45.641Z,40.3
2019-02-12T08:05:17.643Z,40.3
2019-02-12T08:05:49.627Z,40.3
2019-02-12T08:06:21.739Z,40.3
2019-02-12T08:06:53.747Z,40.2
2019-02-12T08:07:25.733Z,40.01
2019-02-12T08:07:57.700Z,40.2
2019-02-12T08:08:29.666Z,40.3
2019-02-12T08:09:01.676Z,40.3
2019-02-12T08:09:33.697Z,40.3
2019-02-12T08:10:05.739Z,40.3
2019-02-12T08:10:37.727Z,40.2
2019-02-12T08:11:09.699Z,40.01
2019-02-12T08:11:41.766Z,40.3
2019-02-12T08:12:13.797Z,40.2
2019-02-12T08:12:45.790Z,40.39
2019-02-12T08:13:17.772Z,40.2
2019-02-12T08:13:49.756Z,40.3
2019-02-12T08:14:21.737Z,40.3
2019-02-12T08:14:53.730Z,40.3
2019-02-12T08:15:25.730Z,40.3
2019-02-12T08:15:57.707Z,40.39
2019-02-12T08:16:29.713Z,40.11
2019-02-12T08:17:01.713Z,40.2
2019-02-12T08:17:33.663Z,40.2
2019-02-12T08:18:05.637Z,40.2
2019-02-12T08:18:37.606Z,40.3
2019-02-12T08:19:09.585Z,40.2
2019-02-12T08:19:41.594Z,40.2
2019-02-12T08:20:13.580Z,40.22
2019-02-12T08:20:45.571Z,40.41
2019-02-12T08:21:17.553Z,40.2
2019-02-12T08:21:49.570Z,40.3
2019-02-12T08:22:21.555Z,40.11
2019-02-12T08:22:53.572Z,40.12
2019-02-12T08:23:25.540Z,40.22
2019-02-12T08:23:57.557Z,40.22
2019-02-12T08:24:29.571Z,40.22
2019-02-12T08:25:01.597Z,40.12
2019-02-12T08:25:33.698Z,40.12
2019-02-12T08:26:05.668Z,40.12
2019-02-12T08:26:37.672Z,40.22
2019-02-12T08:27:09.636Z,40.31
2019-02-12T08:27:41.649Z,40.12
2019-02-12T08:28:13.634Z,40.12
2019-02-12T08:28:45.658Z,40.22
2019-02-12T08:29:17.807Z,40.31
2019-02-12T08:29:49.789Z,40.31
2019-02-12T08:30:21.793Z,40.12
2019-02-12T08:30:53.797Z,40.22
2019-02-12T08:31:25.782Z,40.12
2019-02-12T08:31:57.762Z,40.12
2019-02-12T08:32:30.284Z,40.12
2019-02-12T08:33:02.263Z,40.41
2019-02-12T08:33:34.284Z,40.12
2019-02-12T08:34:06.283Z,40.22
2019-02-12T08:34:38.267Z,40.12
2019-02-12T08:35:10.266Z,40.31
2019-02-12T08:35:42.247Z,40.31
2019-02-12T08:36:14.229Z,40.22
2019-02-12T08:36:46.228Z,40.03
2019-02-12T08:37:18.216Z,40.41
2019-02-12T08:37:50.210Z,40.22
2019-02-12T08:38:22.186Z,40.12
2019-02-12T08:38:54.200Z,40.41
2019-02-12T08:39:26.219Z,40.31
2019-02-12T08:39:58.261Z,40.03
2019-02-12T08:40:30.315Z,40.41
2019-02-12T08:41:02.316Z,40.61
2019-02-12T08:41:34.333Z,40.03
2019-02-12T08:42:06.317Z,40.31
2019-02-12T08:42:38.344Z,40.41
2019-02-12T08:43:10.336Z,39.93
2019-02-12T08:43:43.200Z,39.93
2019-02-12T08:44:15.195Z,40.41
2019-02-12T08:44:47.210Z,39.64
2019-02-12T08:45:19.211Z,40.31
2019-02-12T08:45:51.202Z,40.41
2019-02-12T08:46:23.204Z,40.31
2019-02-12T08:46:55.197Z,40.41
2019-02-12T08:47:27.268Z,39.83
2019-02-12T08:47:59.277Z,39.83
2019-02-12T08:48:31.268Z,39.83
2019-02-12T08:49:03.289Z,40.51
2019-02-12T08:49:35.279Z,40.22
2019-02-12T08:50:07.367Z,39.86
2019-02-12T08:50:39.378Z,39.83
2019-02-12T08:51:11.350Z,40.14
2019-02-12T08:51:43.347Z,39.76
2019-02-12T08:52:15.324Z,39.76
2019-02-12T08:52:47.331Z,39.76
2019-02-12T08:53:19.313Z,39.95
2019-02-12T08:53:51.373Z,40.24
2019-02-12T08:54:23.361Z,40.34
2019-02-12T08:54:55.362Z,39.95
2019-02-12T08:55:27.325Z,40.24
2019-02-12T08:55:59.310Z,40.24
2019-02-12T08:56:31.320Z,40.22
2019-02-12T08:57:03.305Z,39.95
2019-02-12T08:57:35.365Z,40.14
2019-02-12T08:58:07.337Z,40.14
2019-02-12T08:58:39.360Z,40.14
2019-02-12T08:59:11.362Z,40.24
2019-02-12T08:59:43.381Z,40.14
2019-02-12T09:00:15.428Z,40.14
2019-02-12T09:00:48.018Z,40.05
2019-02-12T09:01:20.023Z,40.14
2019-02-12T09:01:52.149Z,40.14
2019-02-12T09:02:24.183Z,40.05
2019-02-12T09:02:56.182Z,40.14
2019-02-12T09:03:28.185Z,40.05
2019-02-12T09:04:00.203Z,40.05
2019-02-12T09:04:32.216Z,40.05
2019-02-12T09:05:04.259Z,40.05
2019-02-12T09:05:36.319Z,40.05
2019-02-12T09:06:08.348Z,40.05
2019-02-12T09:06:40.358Z,39.95
2019-02-12T09:07:12.381Z,39.95
2019-02-12T09:07:44.371Z,40.05
2019-02-12T09:08:16.420Z,40.05
2019-02-12T09:08:48.435Z,39.95
2019-02-12T09:09:20.457Z,40.05
2019-02-12T09:09:52.460Z,40.24
2019-02-12T09:10:24.444Z,40.05
2019-02-12T09:10:56.428Z,39.95
2019-02-12T09:11:28.423Z,40.24
2019-02-12T09:12:00.646Z,40.24
2019-02-12T09:12:32.775Z,40.24
2019-02-12T09:13:05.044Z,40.05
2019-02-12T09:13:37.102Z,40.14
2019-02-12T09:14:09.117Z,40.05
2019-02-12T09:14:41.145Z,40.05
2019-02-12T09:15:13.363Z,40.05
2019-02-12T09:15:45.750Z,40.05
2019-02-12T09:16:17.741Z,39.95
2019-02-12T09:16:49.740Z,39.95
2019-02-12T09:17:21.721Z,40.05
2019-02-12T09:17:53.769Z,40.05
2019-02-12T09:18:25.752Z,40.05
2019-02-12T09:18:57.853Z,40.24
2019-02-12T09:19:29.845Z,40.05
2019-02-12T09:20:01.895Z,40.14
2019-02-12T09:20:33.897Z,40.14
2019-02-12T09:21:06.085Z,40.14
2019-02-12T09:21:38.168Z,40.14
2019-02-12T09:22:10.143Z,40.05
2019-02-12T09:22:42.200Z,40.14
2019-02-12T09:23:14.197Z,40.05
2019-02-12T09:23:46.310Z,40.24
2019-02-12T09:24:18.726Z,39.86
2019-02-12T09:24:50.841Z,39.87
2019-02-12T09:25:23.037Z,40.05
2019-02-12T09:25:55.014Z,40.07
2019-02-12T09:26:27.031Z,39.95
2019-02-12T09:26:59.023Z,39.95
2019-02-12T09:27:31.032Z,40.07
2019-02-12T09:28:03.023Z,39.97
2019-02-12T09:28:35.034Z,40.14
2019-02-12T09:29:07.099Z,40.07
2019-02-12T09:29:39.084Z,40.05
2019-02-12T09:30:11.091Z,40.16
2019-02-12T09:30:43.091Z,40.07
2019-02-12T09:31:15.140Z,40.26
2019-02-12T09:31:47.159Z,40.07
2019-02-12T09:32:19.124Z,40.07
2019-02-12T09:32:51.340Z,40.16
2019-02-12T09:33:23.448Z,40.16
2019-02-12T09:33:55.484Z,40.26
2019-02-12T09:34:27.494Z,39.97
2019-02-12T09:34:59.499Z,40.07
2019-02-12T09:35:31.631Z,39.97
2019-02-12T09:36:03.796Z,40.16
2019-02-12T09:36:35.855Z,40.16
2019-02-12T09:37:07.843Z,40.07
2019-02-12T09:37:39.858Z,40.16
2019-02-12T09:38:11.835Z,40.16
2019-02-12T09:38:43.831Z,40.16
2019-02-12T09:39:15.805Z,40.26
2019-02-12T09:39:47.762Z,40.16
2019-02-12T09:40:20.005Z,40.26
2019-02-12T09:40:51.969Z,40.07
2019-02-12T09:41:23.958Z,40.36
2019-02-12T09:41:55.992Z,39.97
2019-02-12T09:42:28.011Z,40.07
2019-02-12T09:43:00.007Z,40.26
2019-02-12T09:43:32.010Z,39.78
2019-02-12T09:44:03.988Z,40.07
2019-02-12T09:44:35.986Z,40.07
2019-02-12T09:45:07.962Z,40.26
2019-02-12T09:45:39.951Z,40.36
2019-02-12T09:46:11.956Z,40.26
2019-02-12T09:46:43.931Z,39.78
2019-02-12T09:47:15.915Z,39.78
2019-02-12T09:47:47.888Z,39.78
2019-02-12T09:48:19.874Z,39.87
2019-02-12T09:48:51.834Z,39.87
2019-02-12T09:49:26.578Z,39.87
2019-02-12T09:49:58.599Z,39.97
2019-02-12T09:50:30.988Z,39.79
2019-02-12T09:51:03.019Z,39.97
2019-02-12T09:51:35.577Z,40.19
2019-02-12T09:52:07.591Z,40.19
2019-02-12T09:52:39.570Z,39.89
2019-02-12T09:53:11.632Z,40.28
2019-02-12T09:53:43.711Z,40.19
2019-02-12T09:54:15.707Z,39.79
2019-02-12T09:54:47.699Z,39.89
2019-02-12T09:55:19.799Z,39.89
2019-02-12T09:55:51.782Z,40.19
2019-02-12T09:56:23.803Z,40.19
2019-02-12T09:56:55.855Z,39.89
2019-02-12T09:57:27.882Z,39.79
2019-02-12T09:57:59.945Z,39.89
2019-02-12T09:58:31.930Z,39.79
2019-02-12T09:59:03.963Z,39.79
2019-02-12T09:59:35.958Z,40.09
2019-02-12T10:00:08.744Z,40.09
2019-02-12T10:00:40.758Z,40.09
2019-02-12T10:01:12.871Z,40.09
2019-02-12T10:01:44.851Z,40.09
2019-02-12T10:02:16.854Z,40.09
2019-02-12T10:02:48.842Z,40.09
2019-02-12T10:03:20.901Z,40.19
2019-02-12T10:03:52.919Z,40.09
2019-02-12T10:04:24.916Z,40.19
2019-02-12T10:04:56.969Z,40.09
2019-02-12T10:05:29.030Z,40.28
2019-02-12T10:06:01.029Z,40.09
2019-02-12T10:06:33.055Z,39.99
2019-02-12T10:07:05.059Z,40.11
2019-02-12T10:07:37.372Z,40.28
2019-02-12T10:08:09.949Z,40.01
2019-02-12T10:08:41.948Z,40.3
2019-02-12T10:09:13.942Z,40.01
2019-02-12T10:09:45.943Z,39.91
2019-02-12T10:10:17.949Z,40.3
2019-02-12T10:10:49.947Z,40.11
2019-02-12T10:11:21.963Z,39.72
2019-02-12T10:11:53.978Z,39.82
2019-02-12T10:12:25.996Z,39.82
2019-02-12T10:12:58.019Z,40.11
2019-02-12T10:13:30.007Z,40.2
2019-02-12T10:14:01.994Z,39.99
2019-02-12T10:14:33.993Z,40.01
2019-02-12T10:15:05.999Z,40.01
2019-02-12T10:15:38.027Z,40.01
2019-02-12T10:16:10.013Z,39.91
2019-02-12T10:16:41.993Z,39.91
2019-02-12T10:17:13.994Z,40.01
2019-02-12T10:17:46.030Z,40.01
2019-02-12T10:18:18.067Z,40.01
2019-02-12T10:18:50.145Z,40.01
2019-02-12T10:19:22.156Z,39.91
2019-02-12T10:19:54.145Z,40.01
2019-02-12T10:20:26.176Z,39.91
2019-02-12T10:20:58.222Z,39.91
2019-02-12T10:21:30.273Z,39.91
2019-02-12T10:22:02.278Z,39.82
2019-02-12T10:22:34.305Z,40.01
2019-02-12T10:23:07.027Z,39.91
2019-02-12T10:23:39.040Z,39.82
2019-02-12T10:24:20.251Z,40.01
2019-02-12T10:24:52.318Z,40.01
2019-02-12T10:25:24.330Z,40.01
2019-02-12T10:25:56.314Z,40.01
2019-02-12T10:26:28.285Z,39.82
2019-02-12T10:27:00.327Z,39.91
2019-02-12T10:27:32.313Z,39.72
2019-02-12T10:28:04.307Z,39.82
2019-02-12T10:28:36.462Z,40.01
2019-02-12T10:29:08.473Z,39.72
2019-02-12T10:29:40.454Z,39.91
2019-02-12T10:30:12.445Z,39.91
2019-02-12T10:30:44.432Z,40.11
2019-02-12T10:31:16.424Z,39.91
2019-02-12T10:31:48.413Z,39.82
2019-02-12T10:32:20.460Z,39.82
2019-02-12T10:32:52.503Z,39.53
2019-02-12T10:33:24.585Z,39.62
2019-02-12T10:33:56.591Z,39.82
2019-02-12T10:34:28.737Z,39.91
2019-02-12T10:35:00.730Z,39.91
2019-02-12T10:35:32.734Z,39.91
2019-02-12T10:36:04.860Z,39.91
2019-02-12T10:36:36.861Z,39.53
2019-02-12T10:37:08.855Z,39.82
2019-02-12T10:37:40.837Z,39.82
2019-02-12T10:38:44.866Z,39.62
2019-02-12T10:39:16.869Z,39.62
2019-02-12T10:39:48.854Z,39.62
2019-02-12T10:40:20.837Z,39.62
2019-02-12T10:40:52.872Z,39.62
2019-02-12T10:41:24.874Z,39.72
2019-02-12T10:41:56.891Z,39.82
2019-02-12T10:42:28.889Z,39.62
2019-02-12T10:43:00.908Z,39.62
2019-02-12T10:43:32.894Z,39.62
2019-02-12T10:44:04.939Z,39.82
2019-02-12T10:44:36.969Z,39.62
2019-02-12T10:45:08.988Z,39.62
2019-02-12T10:45:40.978Z,39.72
2019-02-12T10:46:12.947Z,39.82
2019-02-12T10:46:44.900Z,39.62
2019-02-12T10:47:16.910Z,39.82
2019-02-12T10:47:48.935Z,39.53
2019-02-12T10:48:20.938Z,39.72
2019-02-12T10:48:53.284Z,39.62
2019-02-12T10:49:25.271Z,39.91
2019-02-12T10:49:57.360Z,39.72
2019-02-12T10:50:30.969Z,39.62
2019-02-12T10:51:02.965Z,39.62
2019-02-12T10:51:34.958Z,39.84
2019-02-12T10:52:06.955Z,39.72
2019-02-12T10:52:38.966Z,39.62
2019-02-12T10:53:11.001Z,39.64
2019-02-12T10:53:43.068Z,39.64
2019-02-12T10:54:15.110Z,39.94
2019-02-12T10:54:47.113Z,39.64
2019-02-12T10:55:19.129Z,39.74
2019-02-12T10:55:51.136Z,39.74
2019-02-12T10:56:23.128Z,39.64
2019-02-12T10:56:55.182Z,39.64
2019-02-12T10:57:27.178Z,39.74
2019-02-12T10:57:59.238Z,39.74
2019-02-12T10:58:31.225Z,39.74
2019-02-12T10:59:03.239Z,39.84
2019-02-12T10:59:35.287Z,39.74
2019-02-12T11:00:07.275Z,39.64
2019-02-12T11:00:39.313Z,39.94
2019-02-12T11:01:11.283Z,39.54
2019-02-12T11:01:43.269Z,39.64
2019-02-12T11:02:15.251Z,39.54
2019-02-12T11:02:47.261Z,39.64
2019-02-12T11:03:19.273Z,39.84
2019-02-12T11:03:51.253Z,39.64
2019-02-12T11:04:23.322Z,39.94
2019-02-12T11:04:55.350Z,39.54
2019-02-12T11:05:27.369Z,39.94
2019-02-12T11:05:59.516Z,39.64
2019-02-12T11:06:31.637Z,39.84
2019-02-12T11:07:03.814Z,39.54
2019-02-12T11:07:35.820Z,39.94
2019-02-12T11:08:07.901Z,39.74
2019-02-12T11:08:39.978Z,39.64
2019-02-12T11:09:11.961Z,39.64
2019-02-12T11:09:43.984Z,39.94
2019-02-12T11:10:15.989Z,39.54
2019-02-12T11:10:48.030Z,39.54
2019-02-12T11:11:20.125Z,39.84
2019-02-12T11:11:52.119Z,39.84
2019-02-12T11:12:24.139Z,39.54
2019-02-12T11:12:56.114Z,39.84
2019-02-12T11:13:28.096Z,39.74
2019-02-12T11:14:00.075Z,39.64
2019-02-12T11:14:32.075Z,39.84
2019-02-12T11:15:04.059Z,39.74
2019-02-12T11:15:36.064Z,39.64
2019-02-12T11:16:08.050Z,39.64
2019-02-12T11:16:40.047Z,39.74
2019-02-12T11:17:12.022Z,39.64
2019-02-12T11:17:44.024Z,39.84
2019-02-12T11:18:16.022Z,39.84
2019-02-12T11:18:48.017Z,39.74
2019-02-12T11:19:20.012Z,39.54
2019-02-12T11:19:51.978Z,39.84
2019-02-12T11:20:23.969Z,39.64
2019-02-12T11:20:55.970Z,39.54
2019-02-12T11:21:27.954Z,39.84
2019-02-12T11:21:59.941Z,39.84
2019-02-12T11:22:31.945Z,39.74
2019-02-12T11:23:03.946Z,39.74
2019-02-12T11:23:35.932Z,39.74
2019-02-12T11:24:07.934Z,39.74
2019-02-12T11:24:39.931Z,39.84
2019-02-12T11:25:11.923Z,39.74
2019-02-12T11:25:43.897Z,39.64
2019-02-12T11:26:15.862Z,39.64
2019-02-12T11:26:47.861Z,39.84
2019-02-12T11:27:19.840Z,39.84
2019-02-12T11:27:51.836Z,39.84
2019-02-12T11:28:23.843Z,39.74
2019-02-12T11:28:55.839Z,39.64
2019-02-12T11:29:27.828Z,39.84
2019-02-12T11:30:01.350Z,39.64
2019-02-12T11:30:33.333Z,39.74
2019-02-12T11:31:05.323Z,39.84
2019-02-12T11:31:37.309Z,40.03
2019-02-12T11:32:09.288Z,39.84
2019-02-12T11:32:41.443Z,39.94
2019-02-12T11:33:13.813Z,39.64
2019-02-12T11:33:45.790Z,39.84
2019-02-12T11:34:17.827Z,39.74
2019-02-12T11:34:49.849Z,39.64
2019-02-12T11:35:21.832Z,39.94
2019-02-12T11:35:53.848Z,39.94
2019-02-12T11:36:25.834Z,39.84
2019-02-12T11:36:57.846Z,39.84
2019-02-12T11:37:29.823Z,39.64
2019-02-12T11:38:01.789Z,39.64
2019-02-12T11:38:33.754Z,39.54
2019-02-12T11:39:05.724Z,39.84
2019-02-12T11:39:37.715Z,39.64
2019-02-12T11:40:09.675Z,39.74
2019-02-12T11:40:41.684Z,39.54
2019-02-12T11:41:13.660Z,39.74
2019-02-12T11:41:45.633Z,39.84
2019-02-12T11:42:17.638Z,39.64
2019-02-12T11:42:49.628Z,39.64
2019-02-12T11:43:21.604Z,39.64
2019-02-12T11:43:53.589Z,39.64
2019-02-12T11:44:25.588Z,39.84
2019-02-12T11:44:57.579Z,39.84
2019-02-12T11:45:29.558Z,39.74
2019-02-12T11:46:01.542Z,39.64
2019-02-12T11:46:35.196Z,39.84
2019-02-12T11:47:07.153Z,39.94
2019-02-12T11:47:39.183Z,39.74
2019-02-12T11:48:11.166Z,39.64
2019-02-12T11:48:43.160Z,39.94
2019-02-12T11:49:15.149Z,39.84
2019-02-12T11:49:47.101Z,39.64
2019-02-12T11:50:19.087Z,39.74
2019-02-12T11:50:51.102Z,39.74
2019-02-12T11:51:23.126Z,39.74
2019-02-12T11:51:55.087Z,39.74
2019-02-12T11:52:27.067Z,39.84
2019-02-12T11:52:59.061Z,39.72
2019-02-12T11:53:31.030Z,39.64
2019-02-12T11:54:03.113Z,40.03
2019-02-12T11:54:35.090Z,39.74
2019-02-12T11:55:15.313Z,39.94
2019-02-12T11:55:47.302Z,39.54
2019-02-12T11:56:19.319Z,39.84
2019-02-12T11:56:51.305Z,39.64
2019-02-12T11:57:23.281Z,39.84
2019-02-12T11:57:55.254Z,39.64
2019-02-12T11:58:27.242Z,39.84
2019-02-12T11:58:59.252Z,39.84
2019-02-12T11:59:31.282Z,39.74
2019-02-12T12:00:03.268Z,39.74
2019-02-12T12:00:35.245Z,39.54
2019-02-12T12:01:07.225Z,39.84
2019-02-12T12:01:39.202Z,39.64
2019-02-12T12:02:11.220Z,39.54
2019-02-12T12:02:43.218Z,39.64
2019-02-12T12:03:15.197Z,39.64
2019-02-12T12:03:47.180Z,39.64
2019-02-12T12:04:19.177Z,39.84
2019-02-12T12:04:51.174Z,39.64
2019-02-12T12:05:23.154Z,39.74
2019-02-12T12:05:55.185Z,39.84
2019-02-12T12:06:27.184Z,39.54
2019-02-12T12:06:59.151Z,39.84
2019-02-12T12:07:31.141Z,39.84
2019-02-12T12:08:03.124Z,39.84
2019-02-12T12:08:35.101Z,39.84
2019-02-12T12:09:07.087Z,39.64
2019-02-12T12:09:39.046Z,39.84
2019-02-12T12:10:11.027Z,39.64
2019-02-12T12:10:43.009Z,39.64
2019-02-12T12:11:15.143Z,39.94
2019-02-12T12:11:47.648Z,39.54
2019-02-12T12:12:19.620Z,39.74
2019-02-12T12:12:51.608Z,39.64
2019-02-12T12:13:23.571Z,39.64
2019-02-12T12:13:55.541Z,39.74
2019-02-12T12:14:27.523Z,39.74
2019-02-12T12:14:59.506Z,39.94
2019-02-12T12:15:31.507Z,39.84
2019-02-12T12:16:03.501Z,39.54
2019-02-12T12:16:35.478Z,39.64
2019-02-12T12:17:07.468Z,39.94
2019-02-12T12:17:39.481Z,39.54
2019-02-12T12:18:11.473Z,39.84
2019-02-12T12:18:43.460Z,39.45
2019-02-12T12:19:15.454Z,39.84
2019-02-12T12:19:47.460Z,39.74
2019-02-12T12:20:19.436Z,39.74
2019-02-12T12:20:51.433Z,39.64
2019-02-12T12:21:23.441Z,39.84
2019-02-12T12:21:55.435Z,39.84
2019-02-12T12:22:27.406Z,39.45
2019-02-12T12:22:59.374Z,39.64
2019-02-12T12:23:31.349Z,39.84
2019-02-12T12:24:03.311Z,39.94
2019-02-12T12:24:35.315Z,39.84
2019-02-12T12:25:07.303Z,39.74
2019-02-12T12:25:39.368Z,39.84
2019-02-12T12:26:11.351Z,39.74
2019-02-12T12:26:43.326Z,39.84
2019-02-12T12:27:15.312Z,39.64
2019-02-12T12:27:47.307Z,39.64
2019-02-12T12:28:19.326Z,39.84
2019-02-12T12:28:51.293Z,39.64
2019-02-12T12:29:23.297Z,39.64
2019-02-12T12:29:55.263Z,39.84
2019-02-12T12:30:27.247Z,39.94
2019-02-12T12:30:59.222Z,39.64
2019-02-12T12:31:31.229Z,39.84
2019-02-12T12:32:03.215Z,39.74
2019-02-12T12:32:35.195Z,39.54
2019-02-12T12:33:07.187Z,39.84
2019-02-12T12:33:39.154Z,39.64
2019-02-12T12:34:11.117Z,39.74
2019-02-12T12:34:43.101Z,39.84
2019-02-12T12:35:15.107Z,39.64
2019-02-12T12:35:47.119Z,39.84
2019-02-12T12:36:19.163Z,39.54
2019-02-12T12:36:51.248Z,39.94
2019-02-12T12:37:23.216Z,39.74
2019-02-12T12:37:55.182Z,39.84
2019-02-12T12:38:27.192Z,39.64
2019-02-12T12:38:59.166Z,39.84
2019-02-12T12:39:31.177Z,39.84
2019-02-12T12:40:03.183Z,39.84
2019-02-12T12:40:35.159Z,39.64
2019-02-12T12:41:07.154Z,39.74
2019-02-12T12:41:39.126Z,39.74
2019-02-12T12:42:11.109Z,39.94
2019-02-12T12:42:43.609Z,39.84
2019-02-12T12:43:16.200Z,39.84
2019-02-12T12:43:48.602Z,39.84
2019-02-12T12:44:20.629Z,39.54
2019-02-12T12:44:52.770Z,39.64
2019-02-12T12:45:24.784Z,39.54
2019-02-12T12:45:56.742Z,39.54
2019-02-12T12:46:28.818Z,39.74
2019-02-12T12:47:00.793Z,39.64
2019-02-12T12:47:32.810Z,39.64
2019-02-12T12:48:04.788Z,39.54
2019-02-12T12:48:36.815Z,39.64
2019-02-12T12:49:08.809Z,39.64
2019-02-12T12:49:40.805Z,39.76
2019-02-12T12:50:12.847Z,39.64
2019-02-12T12:50:44.857Z,39.84
2019-02-12T12:51:16.961Z,39.64
2019-02-12T12:51:48.956Z,39.74
2019-02-12T12:52:20.983Z,39.84
2019-02-12T12:52:53.127Z,39.54
2019-02-12T12:53:25.110Z,39.64
2019-02-12T12:53:57.118Z,39.74
2019-02-12T12:54:29.108Z,39.64
2019-02-12T12:55:01.136Z,39.94
2019-02-12T12:55:33.181Z,39.64
2019-02-12T12:56:05.161Z,39.84
2019-02-12T12:56:37.145Z,39.66
2019-02-12T12:57:09.153Z,39.94
2019-02-12T12:57:42.618Z,39.57
2019-02-12T12:58:14.635Z,39.66
2019-02-12T12:58:46.641Z,39.84
2019-02-12T12:59:18.647Z,39.94
2019-02-12T12:59:50.653Z,39.86
2019-02-12T13:00:22.667Z,39.76
2019-02-12T13:00:56.258Z,39.57
2019-02-12T13:01:28.333Z,39.86
2019-02-12T13:02:00.373Z,39.95
2019-02-12T13:02:32.339Z,39.95
2019-02-12T13:03:04.328Z,39.86
2019-02-12T13:03:36.335Z,39.86
2019-02-12T13:04:08.318Z,39.57
2019-02-12T13:04:40.315Z,39.28
2019-02-12T13:05:12.439Z,39.28
2019-02-12T13:05:44.421Z,39.28
2019-02-12T13:06:16.417Z,39.57
2019-02-12T13:06:48.407Z,39.76
2019-02-12T13:07:20.390Z,39.18
2019-02-12T13:07:52.349Z,39.37
2019-02-12T13:08:24.316Z,39.57
2019-02-12T13:08:56.312Z,39.28
2019-02-12T13:09:28.328Z,39.18
2019-02-12T13:10:00.348Z,39.37
2019-02-12T13:10:32.318Z,39.2
2019-02-12T13:11:04.314Z,39.49
2019-02-12T13:11:36.300Z,39.39
2019-02-12T13:12:08.294Z,39.29
2019-02-12T13:12:40.265Z,39.39
2019-02-12T13:13:12.267Z,39.39
2019-02-12T13:13:44.235Z,39.39
2019-02-12T13:14:16.198Z,39.29
2019-02-12T13:14:48.182Z,39.11
2019-02-12T13:15:20.172Z,39.41
2019-02-12T13:15:52.144Z,39.12
2019-02-12T13:16:24.144Z,39.51
2019-02-12T13:16:57.202Z,39.12
2019-02-12T13:17:30.571Z,39.41
2019-02-12T13:18:02.981Z,39.32
2019-02-12T13:18:34.976Z,39.22
2019-02-12T13:19:08.947Z,39.14
2019-02-12T13:19:41.179Z,39.14
2019-02-12T13:20:13.227Z,39.34
2019-02-12T13:20:46.031Z,39.14
2019-02-12T13:21:18.024Z,39.14
2019-02-12T13:21:49.998Z,39.14
2019-02-12T13:22:21.982Z,38.87
2019-02-12T13:22:53.986Z,38.87
2019-02-12T13:23:26.015Z,38.5
2019-02-12T13:23:58.997Z,38.31
2019-02-12T13:24:31.242Z,38.43
2019-02-12T13:25:09.079Z,38.33
2019-02-12T13:25:41.094Z,38.13
2019-02-12T13:26:13.151Z,38.15
2019-02-12T13:26:45.146Z,38.35
2019-02-12T13:27:17.166Z,38.15
2019-02-12T13:27:49.164Z,38.15
2019-02-12T13:28:21.153Z,38.17
2019-02-12T13:28:53.303Z,37.98
2019-02-12T13:29:25.286Z,38.07
2019-02-12T13:29:57.283Z,38.07
2019-02-12T13:30:31.021Z,37.81
2019-02-12T13:31:03.062Z,38.09
2019-02-12T13:31:35.221Z,38
2019-02-12T13:32:07.341Z,37.9
2019-02-12T13:32:39.702Z,37.9
2019-02-12T13:33:11.803Z,38
2019-02-12T13:33:43.948Z,38.29
2019-02-12T13:34:16.143Z,38.17
2019-02-12T13:34:48.231Z,38.07
2019-02-12T13:35:20.236Z,38.07
2019-02-12T13:35:52.272Z,38.27
2019-02-12T13:36:24.464Z,38.17
2019-02-12T13:36:56.500Z,38.27
2019-02-12T13:37:28.505Z,38.17
2019-02-12T13:38:00.478Z,38.37
2019-02-12T13:38:32.449Z,38.37
2019-02-12T13:39:04.439Z,38.07
2019-02-12T13:39:36.441Z,38.17
2019-02-12T13:40:08.440Z,38.25
2019-02-12T13:40:40.604Z,38.15
2019-02-12T13:41:12.837Z,38.45
2019-02-12T13:41:46.149Z,38.35
2019-02-12T13:42:18.351Z,38.35
2019-02-12T13:42:50.324Z,38.35
2019-02-12T13:43:22.298Z,38.25
2019-02-12T13:43:54.269Z,38.35
2019-02-12T13:44:26.269Z,38.35
2019-02-12T13:44:58.400Z,38.35
2019-02-12T13:45:30.826Z,38.15
2019-02-12T13:46:03.135Z,38.45
2019-02-12T13:46:35.958Z,38.45
2019-02-12T13:47:07.966Z,38.43
2019-02-12T13:47:40.100Z,38.33
2019-02-12T13:48:12.188Z,38.43
2019-02-12T13:48:44.406Z,38.43
2019-02-12T13:49:16.414Z,38.62
2019-02-12T13:49:48.541Z,38.53
2019-02-12T13:50:20.575Z,38.62
2019-02-12T13:50:52.654Z,38.43
2019-02-12T13:51:24.707Z,38.04
2019-02-12T13:51:56.790Z,38.43
2019-02-12T13:52:28.802Z,38.5
2019-02-12T13:53:01.035Z,38.21
2019-02-12T13:53:33.085Z,38.41
2019-02-12T13:54:05.327Z,38.5
2019-02-12T13:54:37.341Z,38.5
2019-02-12T13:55:17.861Z,38.5
2019-02-12T13:55:49.926Z,38.5
2019-02-12T13:56:22.034Z,38.5
2019-02-12T13:56:54.102Z,38.39
2019-02-12T13:57:26.256Z,38.29
2019-02-12T13:57:58.295Z,38.29
2019-02-12T13:58:30.294Z,38.78
2019-02-12T13:59:02.309Z,38.58
2019-02-12T13:59:34.288Z,38.48
2019-02-12T14:00:06.275Z,38.58
2019-02-12T14:00:38.282Z,38.68
2019-02-12T14:01:10.264Z,38.68
2019-02-12T14:01:42.348Z,38.87
2019-02-12T14:02:14.398Z,38.78
2019-02-12T14:02:46.400Z,38.78
2019-02-12T14:03:23.205Z,38.58
2019-02-12T14:03:55.668Z,38.78
2019-02-12T14:04:27.667Z,38.56
2019-02-12T14:04:59.657Z,38.76
2019-02-12T14:05:31.692Z,38.85
2019-02-12T14:06:03.997Z,38.66
2019-02-12T14:06:36.185Z,38.76
2019-02-12T14:07:08.343Z,38.85
2019-02-12T14:07:40.361Z,39.04
2019-02-12T14:08:12.351Z,39.04
2019-02-12T14:08:44.342Z,39.04
2019-02-12T14:09:16.383Z,38.76
2019-02-12T14:09:48.370Z,38.76
2019-02-12T14:10:20.349Z,38.76
2019-02-12T14:10:52.330Z,38.85
2019-02-12T14:11:24.323Z,38.85
2019-02-12T14:11:56.308Z,38.66
2019-02-12T14:12:28.300Z,38.66
2019-02-12T14:13:00.373Z,38.66
2019-02-12T14:13:32.346Z,38.66
2019-02-12T14:14:04.332Z,38.56
2019-02-12T14:14:36.336Z,38.68
2019-02-12T14:15:08.324Z,38.48
2019-02-12T14:15:40.305Z,38.29
2019-02-12T14:16:12.290Z,38.48
2019-02-12T14:16:44.971Z,38.68
2019-02-12T14:17:16.943Z,38.29
2019-02-12T14:17:48.927Z,38.12
2019-02-12T14:18:20.934Z,38.21
2019-02-12T14:18:52.948Z,38.21
2019-02-12T14:19:24.940Z,38.31
2019-02-12T14:19:56.986Z,38.12
2019-02-12T14:20:28.991Z,38.12
2019-02-12T14:21:00.992Z,38.21
2019-02-12T14:21:33.023Z,38.21
2019-02-12T14:22:05.066Z,38.31
2019-02-12T14:22:37.064Z,38.31
2019-02-12T14:23:09.071Z,38.78
2019-02-12T14:23:41.051Z,38.5
2019-02-12T14:24:13.043Z,37.9
2019-02-12T14:24:45.041Z,38.68
2019-02-12T14:25:24.886Z,38.48
2019-02-12T14:25:57.700Z,38.39
2019-02-12T14:26:29.683Z,38.48
2019-02-12T14:27:01.721Z,38.29
2019-02-12T14:27:33.729Z,38.39
2019-02-12T14:28:05.758Z,38.48
2019-02-12T14:28:37.753Z,38.29
2019-02-12T14:29:09.763Z,38.68
2019-02-12T14:29:41.842Z,38.68
2019-02-12T14:30:13.825Z,38.56
2019-02-12T14:30:45.819Z,38.68
2019-02-12T14:31:17.822Z,38.58
2019-02-12T14:31:53.615Z,38.87
2019-02-12T14:32:25.619Z,38.76
2019-02-12T14:32:57.630Z,38.95
2019-02-12T14:33:29.637Z,38.66
2019-02-12T14:34:01.659Z,38.85
2019-02-12T14:34:33.710Z,38.95
2019-02-12T14:35:05.727Z,39.04
2019-02-12T14:35:37.747Z,38.76
2019-02-12T14:36:09.779Z,38.95
2019-02-12T14:36:41.848Z,39.04
2019-02-12T14:37:13.876Z,39.04
2019-02-12T14:37:45.848Z,38.66
2019-02-12T14:38:17.842Z,38.76
2019-02-12T14:38:49.829Z,38.85
2019-02-12T14:39:21.825Z,38.66
2019-02-12T14:39:53.820Z,38.76
2019-02-12T14:40:25.822Z,38.85
2019-02-12T14:40:57.813Z,38.85
2019-02-12T14:41:29.808Z,38.85
2019-02-12T14:42:01.781Z,38.85
2019-02-12T14:42:33.757Z,38.85